Time;durP1;ratioP1;P1;durP2;ratioP2;P2;SDS_P1;SDS_P2;PMS_P1;PMS_P2;Temp;Humidity;BMP_temperature;BMP_pressure;BME280_temperature;BME280_humidity;BME280_pressure;Samples;Min_cycle;Max_cycle;Signal;HPM_P1;HPM_P2
2021/07/02 00:00:08;;;;;;;23.50;4.22;;;;;;;32.73;22.60;100255.28;5027825;28;20121;-68
2021/07/02 00:02:39;;;;;;;21.40;5.30;;;;;;;32.73;23.11;100259.91;5028376;28;20112;-68
2021/07/02 00:05:08;;;;;;;17.42;5.00;;;;;;;32.69;23.47;100258.44;5028109;28;20048;-68
2021/07/02 00:07:35;;;;;;;26.73;6.20;;;;;;;32.63;23.19;100247.94;5027368;28;20042;-68
2021/07/02 00:10:04;;;;;;;22.55;4.93;;;;;;;32.66;22.65;100243.09;5027627;28;20061;-68
2021/07/02 00:12:31;;;;;;;21.83;4.05;;;;;;;32.67;22.24;100239.41;5027521;28;20092;-68
2021/07/02 00:15:02;;;;;;;23.17;5.28;;;;;;;32.71;21.86;100250.94;5026736;28;20041;-68
2021/07/02 00:17:30;;;;;;;27.48;5.57;;;;;;;32.72;21.78;100252.69;5027647;28;20359;-68
2021/07/02 00:19:57;;;;;;;28.73;4.30;;;;;;;32.71;21.89;100250.94;5027513;28;20144;-68
2021/07/02 00:22:25;;;;;;;23.52;4.00;;;;;;;32.70;22.33;100254.66;5028332;28;20044;-68
2021/07/02 00:24:53;;;;;;;23.58;4.28;;;;;;;32.67;22.47;100252.22;5027888;28;20060;-68
2021/07/02 00:27:21;;;;;;;27.42;4.78;;;;;;;32.64;22.93;100255.16;5027866;28;20050;-68
2021/07/02 00:29:49;;;;;;;26.40;5.20;;;;;;;32.58;22.99;100255.69;5028087;28;20049;-68
2021/07/02 00:32:19;;;;;;;23.52;4.85;;;;;;;32.63;23.06;100310.84;5027936;28;20041;-68
2021/07/02 00:34:46;;;;;;;25.05;4.45;;;;;;;32.59;24.06;100315.72;5027376;28;20506;-68
2021/07/02 00:37:14;;;;;;;31.90;4.97;;;;;;;32.48;27.97;100307.53;5027438;28;20462;-68
2021/07/02 00:39:42;;;;;;;34.58;5.45;;;;;;;32.35;33.17;100331.41;5028961;28;20121;-68
2021/07/02 00:42:09;;;;;;;31.00;5.10;;;;;;;32.16;35.84;100350.31;5030511;28;20037;-68
2021/07/02 00:44:42;;;;;;;30.35;6.20;;;;;;;31.94;37.60;100351.13;5031486;28;20123;-68
2021/07/02 00:47:09;;;;;;;39.15;6.45;;;;;;;31.73;38.23;100382.84;5031033;28;20155;-68
2021/07/02 00:49:39;;;;;;;29.77;6.00;;;;;;;31.56;39.35;100403.25;5030703;28;20128;-68
2021/07/02 00:52:09;;;;;;;36.92;7.75;;;;;;;31.44;40.63;100410.50;5030985;28;20120;-68
2021/07/02 00:54:37;;;;;;;35.58;6.40;;;;;;;31.24;41.75;100419.38;5011250;28;20038;-68
2021/07/02 00:57:08;;;;;;;39.33;7.20;;;;;;;31.04;43.34;100409.06;5011580;28;20088;-68
2021/07/02 00:59:35;;;;;;;32.53;7.03;;;;;;;30.91;44.05;100405.50;5028239;28;20049;-68
2021/07/02 01:02:03;;;;;;;30.08;5.88;;;;;;;30.83;44.35;100387.84;5030374;28;20128;-68
2021/07/02 01:04:31;;;;;;;29.58;4.75;;;;;;;30.72;44.72;100384.19;5031028;28;20129;-68
2021/07/02 01:07:03;;;;;;;31.08;6.43;;;;;;;30.66;44.55;100385.50;5030482;28;20132;-68
2021/07/02 01:09:31;;;;;;;35.38;6.03;;;;;;;30.59;44.66;100386.09;5030931;28;20049;-68
2021/07/02 01:12:00;;;;;;;35.70;5.90;;;;;;;30.58;44.63;100382.47;5029127;28;20045;-69
2021/07/02 01:14:27;;;;;;;29.83;6.47;;;;;;;30.51;44.50;100381.19;5031040;28;20040;-68
2021/07/02 01:16:57;;;;;;;31.17;5.93;;;;;;;30.41;44.83;100378.22;5031182;28;20487;-68
2021/07/02 01:19:25;;;;;;;33.72;6.18;;;;;;;30.31;45.29;100366.25;5030724;28;20107;-68
2021/07/02 01:21:55;;;;;;;32.55;5.75;;;;;;;30.32;45.15;100368.00;5030192;28;20125;-68
2021/07/02 01:24:23;;;;;;;32.90;6.97;;;;;;;30.45;45.03;100362.53;5030374;28;20033;-68
2021/07/02 01:26:54;;;;;;;32.40;7.15;;;;;;;30.42;44.85;100346.41;5030476;28;20057;-68
2021/07/02 01:29:23;;;;;;;31.33;6.10;;;;;;;30.37;44.58;100345.88;5030313;28;20118;-68
2021/07/02 01:31:51;;;;;;;35.03;6.05;;;;;;;30.41;44.36;100325.56;5030201;28;20120;-68
2021/07/02 01:34:18;;;;;;;30.08;6.50;;;;;;;30.54;44.07;100329.16;5030747;28;20064;-68
2021/07/02 01:36:46;;;;;;;31.98;5.68;;;;;;;30.59;44.21;100331.56;5030035;28;20111;-68
2021/07/02 01:39:15;;;;;;;29.02;6.65;;;;;;;30.58;43.99;100322.53;5030628;28;20037;-68
2021/07/02 01:41:43;;;;;;;26.75;5.53;;;;;;;30.62;43.90;100326.75;5030072;28;20140;-68
2021/07/02 01:44:10;;;;;;;29.42;5.65;;;;;;;30.51;44.35;100323.09;5022440;28;20095;-68
2021/07/02 01:46:38;;;;;;;30.00;6.65;;;;;;;30.38;44.58;100313.06;5027232;28;20538;-68
2021/07/02 01:49:06;;;;;;;31.10;4.78;;;;;;;30.24;45.03;100313.22;5029658;28;20047;-68
2021/07/02 01:51:34;;;;;;;37.55;5.90;;;;;;;30.25;45.06;100316.81;5029438;28;20076;-68
2021/07/02 01:54:02;;;;;;;37.67;6.43;;;;;;;30.07;45.45;100325.31;5029682;28;20060;-68
2021/07/02 01:56:31;;;;;;;38.60;8.10;;;;;;;29.97;45.62;100320.66;5029444;28;21697;-68
2021/07/02 01:58:58;;;;;;;22.73;5.57;;;;;;;29.91;45.69;100324.66;5030393;28;20091;-68
2021/07/02 02:01:26;;;;;;;38.92;6.00;;;;;;;29.96;45.71;100314.34;5029582;28;20057;-68
2021/07/02 02:03:54;;;;;;;26.08;6.03;;;;;;;29.90;45.44;100324.75;5029533;28;20038;-68
2021/07/02 02:06:22;;;;;;;27.73;5.55;;;;;;;29.92;45.35;100329.16;5029299;28;20045;-68
2021/07/02 02:08:50;;;;;;;31.92;6.22;;;;;;;29.96;44.95;100327.06;5029948;28;20053;-68
2021/07/02 02:11:17;;;;;;;37.03;6.63;;;;;;;29.92;44.70;100336.44;5028572;28;20037;-68
2021/07/02 02:13:46;;;;;;;29.35;5.50;;;;;;;29.86;45.07;100337.72;5030001;28;20041;-68
2021/07/02 02:16:14;;;;;;;31.60;5.75;;;;;;;29.65;45.58;100348.28;5029548;28;20064;-68
2021/07/02 02:18:42;;;;;;;23.42;5.03;;;;;;;29.57;45.63;100344.34;5028476;28;20045;-68
2021/07/02 02:21:09;;;;;;;28.10;5.72;;;;;;;29.52;46.00;100357.41;5029497;28;20498;-68
2021/07/02 02:23:37;;;;;;;30.70;5.32;;;;;;;29.45;46.25;100356.97;5029736;28;20049;-68
2021/07/02 02:26:05;;;;;;;34.38;6.07;;;;;;;29.50;46.10;100345.75;5029172;28;20049;-68
2021/07/02 02:28:33;;;;;;;31.17;5.50;;;;;;;29.55;45.60;100358.06;5029409;28;20049;-68
2021/07/02 02:31:03;;;;;;;33.80;6.68;;;;;;;29.45;45.76;100351.53;5029466;28;20075;-68
2021/07/02 02:33:31;;;;;;;31.63;6.93;;;;;;;29.40;45.62;100361.84;5029314;28;20055;-68
2021/07/02 02:35:58;;;;;;;29.67;5.55;;;;;;;29.31;45.84;100357.00;5028712;28;20034;-68
2021/07/02 02:38:26;;;;;;;32.35;5.93;;;;;;;29.24;46.05;100353.81;5028292;28;20116;-68
2021/07/02 02:40:53;;;;;;;26.17;5.80;;;;;;;29.13;46.33;100350.97;5029026;28;20398;-68
2021/07/02 02:43:21;;;;;;;31.70;6.70;;;;;;;29.13;46.12;100348.25;5027385;28;20129;-68
2021/07/02 02:45:48;;;;;;;36.58;6.82;;;;;;;29.13;45.83;100348.25;5028587;28;20434;-68
2021/07/02 02:48:19;;;;;;;26.65;5.38;;;;;;;29.17;45.31;100351.63;5029235;28;20045;-68
2021/07/02 02:50:46;;;;;;;31.48;6.32;;;;;;;29.15;45.10;100356.28;5028549;28;20037;-68
2021/07/02 02:53:14;;;;;;;31.58;5.75;;;;;;;29.15;45.06;100350.84;5028879;28;20521;-68
2021/07/02 02:55:41;;;;;;;36.05;6.63;;;;;;;29.04;45.43;100353.44;5029373;28;20653;-68
2021/07/02 02:58:09;;;;;;;33.53;5.35;;;;;;;28.99;45.37;100361.03;5040299;28;20052;-68
2021/07/02 03:00:37;;;;;;;32.30;5.70;;;;;;;28.86;45.43;100360.97;5048028;28;20068;-68
2021/07/02 04:01:12;;;;;;;34.70;5.28;;;;;;;28.66;44.72;100427.47;5067906;27;20476;-65
2021/07/02 04:03:40;;;;;;;30.58;5.55;;;;;;;28.99;44.69;100421.72;5067530;28;20417;-65
2021/07/02 04:06:07;;;;;;;30.25;5.75;;;;;;;29.35;44.31;100422.97;5066039;28;20047;-65
2021/07/02 04:08:36;;;;;;;33.03;6.10;;;;;;;29.59;44.05;100414.03;5067237;28;20106;-65
2021/07/02 04:11:06;;;;;;;30.13;6.10;;;;;;;29.88;43.94;100425.59;5064899;28;20973;-65
2021/07/02 04:13:34;;;;;;;37.47;5.68;;;;;;;30.16;43.65;100418.22;5065733;28;20413;-65
2021/07/02 04:16:01;;;;;;;33.45;6.57;;;;;;;30.38;43.62;100432.94;5066917;28;20047;-65
2021/07/02 04:18:30;;;;;;;35.13;6.18;;;;;;;30.58;43.21;100434.28;5065975;28;20091;-65
2021/07/02 04:20:58;;;;;;;32.33;6.22;;;;;;;30.77;43.15;100445.56;5066048;28;20041;-66
2021/07/02 04:23:26;;;;;;;31.55;6.72;;;;;;;30.96;43.28;100441.47;5067097;28;20040;-67
2021/07/02 04:25:53;;;;;;;26.42;5.40;;;;;;;31.17;42.35;100432.59;5066598;28;20040;-64
2021/07/02 04:28:20;;;;;;;41.95;7.00;;;;;;;31.35;41.83;100441.25;5065794;28;20547;-64
2021/07/02 04:30:48;;;;;;;29.65;5.97;;;;;;;31.57;41.23;100435.88;5066525;28;20035;-65
2021/07/02 04:33:16;;;;;;;34.92;6.13;;;;;;;31.83;40.62;100439.38;5066413;28;20093;-65
2021/07/02 04:35:45;;;;;;;29.95;6.65;;;;;;;32.03;39.66;100437.81;5066380;28;20124;-66
2021/07/02 04:38:12;;;;;;;28.63;6.65;;;;;;;32.17;39.40;100426.66;5065031;28;20053;-66
2021/07/02 04:40:40;;;;;;;33.92;6.68;;;;;;;32.39;38.86;100434.88;5065796;28;20124;-65
2021/07/02 04:43:07;;;;;;;30.65;5.78;;;;;;;32.70;38.30;100429.69;5066064;28;20041;-66
2021/07/02 04:45:34;;;;;;;29.08;6.38;;;;;;;32.98;37.63;100433.75;5065029;28;20409;-65
2021/07/02 04:48:02;;;;;;;34.95;6.07;;;;;;;33.25;37.18;100441.56;5058330;28;20142;-66
2021/07/02 04:50:29;;;;;;;27.98;5.65;;;;;;;33.56;36.81;100432.47;5063228;28;20103;-65
2021/07/02 04:52:58;;;;;;;32.38;6.00;;;;;;;33.84;35.69;100420.94;5065293;28;20043;-65
2021/07/02 04:55:26;;;;;;;30.10;5.80;;;;;;;34.12;35.12;100416.66;5066247;28;20036;-65
2021/07/02 04:57:53;;;;;;;27.27;5.55;;;;;;;34.39;34.28;100411.50;5065210;28;20029;-65
2021/07/02 05:00:21;;;;;;;28.02;4.80;;;;;;;34.69;33.32;100407.84;5061947;28;20026;-65
2021/07/02 05:02:48;;;;;;;28.88;5.10;;;;;;;34.88;32.34;100408.94;5052464;28;20047;-64
2021/07/02 05:05:16;;;;;;;27.27;6.28;;;;;;;35.14;31.79;100415.63;5044883;28;20051;-65
2021/07/02 05:07:43;;;;;;;29.85;5.57;;;;;;;35.40;30.77;100408.59;5032728;28;20076;-65
2021/07/02 05:10:13;;;;;;;33.35;6.15;;;;;;;35.60;29.59;100406.72;5031996;28;20055;-66
2021/07/02 05:12:41;;;;;;;28.05;5.35;;;;;;;35.82;29.32;100398.22;5032007;28;20045;-66
2021/07/02 05:15:12;;;;;;;30.80;4.78;;;;;;;35.94;28.33;100394.28;5032654;28;20506;-65
2021/07/02 05:17:39;;;;;;;29.50;6.15;;;;;;;36.33;27.67;100396.94;5031367;28;20040;-66
2021/07/02 05:20:08;;;;;;;30.63;6.22;;;;;;;36.43;27.26;100403.25;5032792;28;20048;-65
2021/07/02 05:22:35;;;;;;;26.50;5.50;;;;;;;36.67;26.62;100398.13;5031923;28;20147;-65
2021/07/02 05:25:06;;;;;;;32.10;5.60;;;;;;;36.87;26.12;100393.38;5032849;28;20478;-65
2021/07/02 05:27:35;;;;;;;32.40;5.88;;;;;;;37.14;25.73;100387.00;5031988;28;20096;-65
2021/07/02 05:30:02;;;;;;;29.67;5.70;;;;;;;37.32;25.78;100385.13;5032193;28;20046;-66
2021/07/02 05:32:30;;;;;;;37.97;7.03;;;;;;;37.60;25.22;100380.44;5031843;28;20476;-67
2021/07/02 05:34:57;;;;;;;26.95;4.68;;;;;;;37.64;23.97;100384.59;5026716;28;20045;-66
2021/07/02 05:37:25;;;;;;;29.83;4.70;;;;;;;37.80;23.66;100386.63;5029611;28;20041;-66
2021/07/02 05:39:54;;;;;;;34.90;4.97;;;;;;;38.02;23.50;100387.97;5029721;28;20037;-65
2021/07/02 05:42:24;;;;;;;19.45;5.40;;;;;;;38.11;23.33;100387.91;5043959;28;20141;-66
2021/07/02 05:44:53;;;;;;;24.63;5.28;;;;;;;38.47;23.24;100385.84;5051902;28;20388;-65
2021/07/02 05:47:23;;;;;;;28.52;5.50;;;;;;;38.88;22.93;100386.03;5051469;28;20136;-66
2021/07/02 05:49:50;;;;;;;27.88;6.25;;;;;;;39.09;22.56;100392.00;5051781;28;20045;-66
2021/07/02 05:52:18;;;;;;;34.10;5.53;;;;;;;39.16;21.95;100390.31;5051026;28;20052;-66
2021/07/02 05:54:48;;;;;;;28.35;6.13;;;;;;;39.27;22.07;100389.97;5051711;28;20041;-66
2021/07/02 05:57:16;;;;;;;27.00;6.40;;;;;;;39.19;21.43;100391.88;5050676;28;20051;-66
2021/07/02 05:59:43;;;;;;;30.23;5.90;;;;;;;39.36;21.77;100390.88;5050646;28;20041;-66
2021/07/02 06:02:12;;;;;;;25.58;5.28;;;;;;;39.65;21.64;100396.75;5050738;28;20647;-66
2021/07/02 06:04:40;;;;;;;30.42;4.75;;;;;;;39.59;21.59;100391.94;5050389;28;20045;-66
2021/07/02 06:07:07;;;;;;;27.10;5.70;;;;;;;39.81;21.56;100396.81;5052356;28;20051;-66
2021/07/02 06:09:36;;;;;;;24.90;5.00;;;;;;;39.97;21.62;100387.63;5050920;28;20041;-66
2021/07/02 06:12:04;;;;;;;29.13;4.75;;;;;;;40.13;21.24;100393.13;5048300;28;20096;-66
2021/07/02 06:14:31;;;;;;;22.75;5.50;;;;;;;40.11;20.73;100389.66;5050590;28;20053;-66
2021/07/02 06:16:59;;;;;;;29.42;6.22;;;;;;;40.39;20.90;100392.06;5051538;28;20488;-66
2021/07/02 06:19:29;;;;;;;26.48;4.40;;;;;;;40.36;20.96;100378.59;5049688;28;20113;-66
2021/07/02 06:21:56;;;;;;;27.67;5.15;;;;;;;40.24;20.97;100385.53;5050049;28;20056;-66
2021/07/02 06:24:23;;;;;;;29.83;5.30;;;;;;;40.16;20.41;100383.63;5050656;28;20047;-66
2021/07/02 06:26:51;;;;;;;30.05;4.60;;;;;;;40.21;20.33;100387.59;5050745;28;20049;-66
2021/07/02 06:29:18;;;;;;;29.08;6.00;;;;;;;40.28;20.19;100386.91;5049856;28;20037;-66
2021/07/02 06:31:46;;;;;;;24.05;5.47;;;;;;;40.35;20.11;100388.78;5050153;28;20043;-66
2021/07/02 06:34:13;;;;;;;32.50;6.45;;;;;;;40.66;20.29;100390.78;5050021;28;20120;-66
2021/07/02 06:36:42;;;;;;;30.73;5.40;;;;;;;40.88;20.33;100390.84;5050180;28;20045;-66
2021/07/02 06:39:11;;;;;;;29.23;4.78;;;;;;;40.99;20.34;100387.66;5049174;28;20124;-66
2021/07/02 06:41:38;;;;;;;27.13;4.95;;;;;;;41.00;20.38;100399.63;5049176;28;20048;-66
2021/07/02 06:44:06;;;;;;;26.00;4.82;;;;;;;40.97;21.39;100403.59;5049001;28;20041;-66
2021/07/02 06:46:34;;;;;;;30.65;5.82;;;;;;;40.72;22.91;100406.66;5049484;28;20037;-67
2021/07/02 06:49:04;;;;;;;25.75;6.03;;;;;;;40.50;24.14;100413.84;5048766;28;20087;-66
2021/07/02 06:51:33;;;;;;;28.15;5.43;;;;;;;40.20;24.99;100418.19;5048855;28;20464;-66
2021/07/02 06:54:02;;;;;;;26.88;6.05;;;;;;;40.16;25.57;100423.22;5050826;28;20045;-66
2021/07/02 06:56:31;;;;;;;31.70;6.03;;;;;;;40.28;25.35;100418.22;5051031;28;20037;-66
2021/07/02 06:58:59;;;;;;;29.30;5.28;;;;;;;40.36;25.42;100422.88;5050612;28;20037;-67
2021/07/02 07:01:26;;;;;;;27.70;6.15;;;;;;;40.23;25.48;100437.25;5050898;28;20033;-66
2021/07/02 07:03:54;;;;;;;40.30;6.20;;;;;;;40.15;26.02;100426.16;5050523;28;20037;-66
2021/07/02 07:06:21;;;;;;;27.67;5.63;;;;;;;40.05;26.32;100445.69;5050817;28;20119;-67
2021/07/02 07:08:49;;;;;;;24.58;4.85;;;;;;;40.17;26.74;100441.53;5050799;28;20041;-66
2021/07/02 07:11:18;;;;;;;26.95;6.95;;;;;;;40.31;27.15;100442.75;5050783;28;20132;-66
2021/07/02 07:13:45;;;;;;;28.35;5.47;;;;;;;40.02;27.97;100447.97;5049875;28;20401;-66
2021/07/02 07:16:13;;;;;;;26.20;5.22;;;;;;;40.01;28.62;100441.56;5049492;28;20078;-65
2021/07/02 07:18:41;;;;;;;26.83;5.88;;;;;;;39.77;29.63;100444.31;5050206;28;20041;-66
2021/07/02 07:21:08;;;;;;;26.80;5.35;;;;;;;39.36;30.07;100438.72;5050106;28;20060;-66
2021/07/02 07:23:35;;;;;;;33.05;7.15;;;;;;;39.21;30.79;100451.44;5050043;28;20043;-66
2021/07/02 07:26:03;;;;;;;25.30;4.90;;;;;;;39.15;31.05;100454.00;5050475;28;20029;-66
2021/07/02 07:28:32;;;;;;;37.28;5.90;;;;;;;38.81;31.28;100451.25;5049917;28;20055;-66
2021/07/02 07:31:00;;;;;;;30.48;5.97;;;;;;;38.76;31.69;100454.53;5050345;28;20116;-66
2021/07/02 07:33:29;;;;;;;32.00;6.32;;;;;;;38.84;31.80;100464.75;5049905;28;20437;-66
2021/07/02 07:35:57;;;;;;;24.23;6.07;;;;;;;39.00;31.96;100462.06;5049894;28;20500;-65
2021/07/02 07:38:24;;;;;;;31.45;6.30;;;;;;;38.92;31.44;100457.41;5050417;28;20068;-66
2021/07/02 07:40:52;;;;;;;29.67;6.22;;;;;;;39.21;31.09;100465.25;5049830;28;20043;-66
2021/07/02 07:43:22;;;;;;;33.30;7.43;;;;;;;39.44;30.85;100463.63;5049795;28;20052;-66
2021/07/02 07:45:50;;;;;;;37.75;7.30;;;;;;;39.79;30.17;100476.31;5050475;28;20123;-66
2021/07/02 07:48:18;;;;;;;26.50;5.70;;;;;;;40.09;30.01;100472.00;5049124;28;20049;-66
2021/07/02 07:50:49;;;;;;;25.73;5.60;;;;;;;40.29;29.33;100468.91;5049130;28;20048;-66
2021/07/02 07:53:17;;;;;;;23.08;5.82;;;;;;;40.39;28.90;100466.78;5028972;28;20041;-67
2021/07/02 07:55:45;;;;;;;27.17;5.40;;;;;;;40.17;29.06;100468.38;5045621;28;20037;-65
2021/07/02 07:58:12;;;;;;;27.30;5.28;;;;;;;40.15;28.87;100470.44;5050016;28;20052;-67
2021/07/02 08:00:40;;;;;;;31.50;5.80;;;;;;;40.20;28.50;100474.41;5049902;28;20128;-66
2021/07/02 08:03:10;;;;;;;33.65;6.43;;;;;;;40.20;28.24;100479.94;5049187;28;20494;-66
2021/07/02 08:05:37;;;;;;;32.38;6.22;;;;;;;40.21;28.00;100483.56;5049825;28;20148;-66
2021/07/02 08:08:05;;;;;;;28.60;5.63;;;;;;;40.25;27.44;100486.88;5050163;28;20048;-66
2021/07/02 08:10:32;;;;;;;26.42;5.13;;;;;;;40.17;26.83;100498.81;5050043;28;20585;-67
2021/07/02 08:12:59;;;;;;;27.67;5.47;;;;;;;40.03;26.83;100492.06;5049950;28;20076;-66
2021/07/02 08:15:27;;;;;;;29.17;5.40;;;;;;;39.93;26.05;100496.03;5049559;28;20491;-66
2021/07/02 08:17:54;;;;;;;25.48;6.35;;;;;;;40.00;26.08;100500.69;5049951;28;20120;-66
2021/07/02 08:20:23;;;;;;;34.22;6.28;;;;;;;40.16;26.12;100500.72;5050212;28;20033;-66
2021/07/02 08:22:50;;;;;;;35.47;5.97;;;;;;;40.44;26.00;100494.81;5049681;28;20033;-66
2021/07/02 08:25:18;;;;;;;30.02;6.10;;;;;;;40.52;25.87;100497.56;5049959;28;20405;-66
2021/07/02 08:30:30;;;;;;;31.35;6.70;;;;;;;40.42;26.67;100492.22;5049665;28;20041;-66
2021/07/02 08:32:58;;;;;;;30.55;6.85;;;;;;;40.41;27.26;100503.47;5048564;28;20041;-66
2021/07/02 08:35:26;;;;;;;28.25;5.50;;;;;;;40.60;27.50;100492.00;5049054;28;20049;-66
2021/07/02 08:37:54;;;;;;;29.27;5.75;;;;;;;40.66;27.47;100487.69;5052592;28;20071;-66
2021/07/02 08:40:23;;;;;;;32.92;6.22;;;;;;;40.60;27.95;100497.56;5051844;28;20056;-66
2021/07/02 08:42:51;;;;;;;27.85;5.65;;;;;;;40.72;28.25;100495.28;5053428;28;20045;-66
2021/07/02 08:45:18;;;;;;;32.50;6.60;;;;;;;40.73;28.37;100500.66;5052130;28;20123;-66
2021/07/02 08:47:46;;;;;;;38.05;7.97;;;;;;;40.75;28.25;100501.34;5052722;28;20044;-66
2021/07/02 08:50:14;;;;;;;30.05;6.03;;;;;;;40.72;28.49;100507.25;5052531;28;20051;-66
2021/07/02 08:52:43;;;;;;;27.83;6.28;;;;;;;40.72;28.52;100507.25;5052599;28;20048;-67
2021/07/02 08:55:13;;;;;;;23.52;5.38;;;;;;;40.61;28.46;100504.81;5052377;28;20041;-67
2021/07/02 08:57:41;;;;;;;28.65;5.78;;;;;;;40.42;28.64;100513.50;5052792;28;20037;-66
2021/07/02 09:00:09;;;;;;;30.77;6.43;;;;;;;40.49;28.60;100517.31;5052520;28;20037;-67
2021/07/02 09:02:39;;;;;;;27.77;5.50;;;;;;;40.60;28.07;100516.94;5052752;28;20030;-66
2021/07/02 09:05:32;;;;;;;23.80;5.35;;;;;;;40.52;27.18;100508.63;5051664;28;20517;-67
2021/07/02 09:08:02;;;;;;;26.60;4.60;;;;;;;40.36;27.41;100506.78;5048243;28;20040;-67
2021/07/02 09:10:34;;;;;;;26.70;5.65;;;;;;;40.47;26.32;100503.63;5052639;28;20037;-67
2021/07/02 09:13:02;;;;;;;26.88;4.80;;;;;;;40.45;26.29;100485.47;5052185;28;20059;-66
2021/07/02 09:15:30;;;;;;;22.63;4.15;;;;;;;40.77;25.40;100488.19;5052183;28;20039;-66
2021/07/02 09:18:00;;;;;;;22.98;5.03;;;;;;;40.97;24.77;100486.72;5052150;28;20043;-66
2021/07/02 09:20:29;;;;;;;23.17;4.32;;;;;;;41.10;24.42;100483.41;5052195;28;20065;-67
2021/07/02 09:22:58;;;;;;;21.42;4.40;;;;;;;41.10;24.09;100474.22;5051083;28;20453;-66
2021/07/02 09:25:40;;;;;;;18.77;3.92;;;;;;;41.23;23.62;100480.91;5053268;28;20466;-67
2021/07/02 09:28:08;;;;;;;25.63;4.90;;;;;;;41.06;24.19;100482.00;5051892;28;20060;-67
2021/07/02 09:30:38;;;;;;;23.17;4.45;;;;;;;41.16;23.94;100476.31;5045377;28;20037;-67
2021/07/02 09:33:08;;;;;;;20.85;4.22;;;;;;;40.99;23.16;100475.47;5052569;28;20041;-67
2021/07/02 09:35:44;;;;;;;17.88;4.18;;;;;;;41.10;23.30;100488.94;5051887;28;20047;-66
2021/07/02 09:38:11;;;;;;;22.83;4.00;;;;;;;41.04;22.41;100483.22;5047823;28;20037;-67
2021/07/02 09:40:41;;;;;;;24.52;4.50;;;;;;;41.22;22.60;100481.13;5050416;28;20033;-65
2021/07/02 09:43:09;;;;;;;23.00;4.10;;;;;;;41.29;22.03;100482.94;5051342;28;20119;-66
2021/07/02 09:45:45;;;;;;;22.50;3.97;;;;;;;41.29;21.52;100495.97;5050873;28;20045;-66
2021/07/02 09:48:14;;;;;;;19.52;4.07;;;;;;;40.99;22.32;100495.72;5049829;28;20544;-67
2021/07/02 09:50:45;;;;;;;22.02;3.47;;;;;;;41.16;22.31;100487.38;5044750;28;20406;-66
2021/07/02 09:53:12;;;;;;;24.45;5.20;;;;;;;40.95;22.64;100497.13;5051997;28;20047;-67
2021/07/02 09:55:45;;;;;;;25.00;4.53;;;;;;;40.82;22.96;100491.31;5048974;28;20056;-67
2021/07/02 09:58:14;;;;;;;;;;;;;;;40.69;23.23;100491.00;5051616;28;20041;-65
2021/07/02 10:00:44;;;;;;;17.80;3.90;;;;;;;40.68;23.59;100494.81;5049884;28;19924;-66
2021/07/02 10:03:12;;;;;;;24.73;5.50;;;;;;;40.29;24.82;100488.28;5046677;28;20063;-67
2021/07/02 10:05:51;;;;;;;22.70;5.53;;;;;;;40.42;24.89;100488.59;5043389;28;20072;-66
2021/07/02 10:08:20;;;;;;;21.77;4.45;;;;;;;40.31;24.66;100475.09;5048030;28;20045;-66
2021/07/02 10:10:50;;;;;;;22.25;3.72;;;;;;;40.21;24.07;100475.28;5044521;28;20068;-66
2021/07/02 10:13:19;;;;;;;18.30;4.07;;;;;;;40.30;24.35;100463.19;5044016;28;20051;-66
2021/07/02 10:15:47;;;;;;;28.58;4.20;;;;;;;40.54;23.44;100476.09;5044107;28;20135;-66
2021/07/02 10:18:17;;;;;;;24.55;3.63;;;;;;;40.62;23.10;100467.78;5043140;28;20049;-67
2021/07/02 10:20:48;;;;;;;22.48;4.28;;;;;;;40.37;23.73;100463.34;5044448;28;20037;-66
2021/07/02 10:23:27;;;;;;;20.63;4.22;;;;;;;39.90;24.75;100455.75;5042791;28;20051;-67
2021/07/02 10:25:57;;;;;;;21.50;5.57;;;;;;;39.73;25.93;100465.91;5043159;28;20048;-65
2021/07/02 10:28:26;;;;;;;19.95;5.82;;;;;;;39.47;26.60;100459.66;5045158;28;20067;-66
2021/07/02 10:30:54;;;;;;;20.15;4.13;;;;;;;39.66;26.06;100458.47;5042800;28;20041;-66
2021/07/02 10:33:25;;;;;;;26.08;4.45;;;;;;;39.90;25.00;100465.97;5045934;28;20040;-67
2021/07/02 10:35:56;;;;;;;19.63;4.25;;;;;;;39.86;24.60;100459.88;5043569;28;20055;-66
2021/07/02 10:38:24;;;;;;;19.45;3.67;;;;;;;39.62;25.64;100454.31;5044577;28;20049;-66
2021/07/02 10:40:51;;;;;;;24.17;4.53;;;;;;;38.89;27.68;100448.53;5042737;28;20123;-66
2021/07/02 10:43:22;;;;;;;22.60;4.35;;;;;;;38.25;29.00;100448.00;5047126;28;20037;-67
2021/07/02 10:46:17;;;;;;;25.63;4.30;;;;;;;38.37;27.99;100451.34;5051135;28;20044;-66
2021/07/02 10:49:01;;;;;;;19.33;4.20;;;;;;;38.95;27.16;100447.91;5050721;28;20041;-66
2021/07/02 10:51:47;;;;;;;;;;;;;;;39.08;26.74;100452.94;5039547;28;20082;-66
2021/07/02 10:54:31;;;;;;;23.40;4.85;;;;;;;39.20;26.86;100459.88;5051013;28;19921;-67
2021/07/02 10:57:04;;;;;;;25.90;4.78;;;;;;;39.63;26.68;100461.59;5044767;28;20045;-67
2021/07/02 11:00:13;;;;;;;23.40;5.30;;;;;;;40.01;26.60;100455.41;5048924;28;20037;-66
2021/07/02 11:02:46;;;;;;;22.42;4.35;;;;;;;39.89;26.72;100448.50;5043603;28;20144;-67
2021/07/02 11:05:29;;;;;;;15.77;3.58;;;;;;;39.83;26.72;100454.72;5046523;28;20124;-66
2021/07/02 11:07:57;;;;;;;31.00;5.00;;;;;;;40.00;26.67;100447.25;5044871;28;20045;-66
2021/07/02 11:10:24;;;;;;;25.42;5.38;;;;;;;40.24;26.54;100458.34;5050076;28;20037;-66
2021/07/02 11:13:01;;;;;;;23.23;4.00;;;;;;;40.39;26.54;100458.47;5048425;28;20083;-66
2021/07/02 11:15:29;;;;;;;25.77;5.18;;;;;;;40.51;26.39;100455.16;5050419;28;20120;-66
2021/07/02 11:18:40;;;;;;;23.75;5.07;;;;;;;40.49;26.49;100456.41;5050403;28;20527;-66
2021/07/02 11:21:20;;;;;;;24.70;5.05;;;;;;;40.80;26.08;100448.19;5045257;28;20045;-66
2021/07/02 11:23:50;;;;;;;30.48;5.07;;;;;;;41.12;25.47;100447.19;5050682;28;20509;-66
2021/07/02 11:26:45;;;;;;;24.52;4.50;;;;;;;40.99;25.61;100448.63;5050882;28;20044;-65
2021/07/02 11:29:17;;;;;;;22.17;4.85;;;;;;;41.06;25.38;100442.34;5033924;28;20457;-66
2021/07/02 11:31:46;;;;;;;25.80;4.45;;;;;;;40.87;25.37;100435.34;5041091;28;20116;-65
2021/07/02 11:34:20;;;;;;;21.10;4.38;;;;;;;40.94;25.12;100441.91;5030236;28;20045;-66
2021/07/02 11:37:09;;;;;;;22.75;4.13;;;;;;;41.25;23.86;100439.16;5030562;28;20049;-67
2021/07/02 11:39:38;;;;;;;21.38;4.47;;;;;;;41.41;23.79;100440.97;5030462;28;20041;-66
2021/07/02 11:42:11;;;;;;;19.55;4.45;;;;;;;41.47;23.80;100438.31;5027969;28;20045;-66
2021/07/02 11:44:38;;;;;;;25.77;5.65;;;;;;;41.68;23.69;100441.31;5030317;28;20041;-67
2021/07/02 11:47:06;;;;;;;21.55;4.95;;;;;;;41.66;23.87;100445.31;5030434;28;20042;-67
2021/07/02 11:49:51;;;;;;;20.92;4.72;;;;;;;40.95;24.87;100443.63;5028584;28;20042;-66
2021/07/02 11:52:19;;;;;;;23.63;6.20;;;;;;;40.31;26.05;100441.88;5029660;28;20045;-66
2021/07/02 11:54:54;;;;;;;23.92;5.78;;;;;;;40.53;26.19;100441.16;5016889;28;20037;-66
2021/07/02 11:57:23;;;;;;;25.58;4.40;;;;;;;41.08;25.56;100438.41;5050125;28;20063;-66
2021/07/02 12:00:02;;;;;;;26.65;6.13;;;;;;;41.41;25.26;100440.97;5047260;28;20041;-66
2021/07/02 12:02:30;;;;;;;23.73;4.72;;;;;;;41.15;26.07;100441.31;5028211;28;20136;-65
2021/07/02 12:05:08;;;;;;;23.35;5.20;;;;;;;40.05;27.71;100433.78;5029884;28;20046;-67
2021/07/02 12:07:36;;;;;;;25.23;5.55;;;;;;;39.70;27.90;100437.75;5030367;28;20041;-66
2021/07/02 12:10:10;;;;;;;22.60;5.50;;;;;;;39.05;29.57;100440.34;5029412;28;20034;-66
2021/07/02 12:12:38;;;;;;;24.38;4.88;;;;;;;38.91;30.27;100440.97;5034047;28;20046;-66
2021/07/02 12:15:06;;;;;;;21.70;4.45;;;;;;;39.03;29.90;100434.13;5034155;28;20037;-67
2021/07/02 12:17:34;;;;;;;30.25;4.95;;;;;;;39.61;28.42;100433.22;5033080;28;20506;-67
2021/07/02 12:20:01;;;;;;;26.33;4.25;;;;;;;40.15;27.14;100426.16;5034295;28;20041;-65
2021/07/02 12:22:32;;;;;;;28.27;4.78;;;;;;;39.87;26.35;100422.91;5034036;28;20037;-67
2021/07/02 12:24:59;;;;;;;27.00;5.05;;;;;;;39.68;26.77;100434.28;5031505;28;20055;-66
2021/07/02 12:27:28;;;;;;;22.27;4.13;;;;;;;39.80;26.07;100428.25;5033747;28;20116;-66